createdAt,value
2022-08-29T00:00:17.915Z,100.00
2022-08-29T00:02:49.622Z,100.00
2022-08-29T00:05:18.464Z,100.00
2022-08-29T00:07:46.925Z,100.00
2022-08-29T00:10:16.480Z,100.00
2022-08-29T00:12:45.821Z,100.00
2022-08-29T00:15:15.849Z,100.00
2022-08-29T00:17:44.579Z,100.00
2022-08-29T00:20:18.987Z,100.00
2022-08-29T00:22:48.340Z,100.00
2022-08-29T00:25:17.175Z,100.00
2022-08-29T00:27:49.877Z,100.00
2022-08-29T00:30:19.469Z,100.00
2022-08-29T00:32:47.784Z,100.00
2022-08-29T00:35:21.511Z,100.00
2022-08-29T00:37:51.645Z,100.00
2022-08-29T00:40:23.765Z,100.00
2022-08-29T00:42:52.168Z,100.00
2022-08-29T00:45:21.105Z,100.00
2022-08-29T00:47:54.061Z,100.00
2022-08-29T00:50:29.460Z,100.00
2022-08-29T00:52:59.708Z,100.00
2022-08-29T00:55:32.376Z,100.00
2022-08-29T00:58:04.166Z,100.00
2022-08-29T01:00:32.924Z,100.00
2022-08-29T01:03:02.988Z,100.00
2022-08-29T01:05:33.682Z,100.00
2022-08-29T01:08:02.417Z,100.00
2022-08-29T01:10:48.395Z,100.00
2022-08-29T01:13:17.018Z,100.00
2022-08-29T01:15:47.222Z,100.00
2022-08-29T01:18:17.277Z,100.00
2022-08-29T01:20:59.947Z,100.00
2022-08-29T01:23:35.565Z,100.00
2022-08-29T01:26:06.589Z,100.00
2022-08-29T01:28:39.314Z,100.00
2022-08-29T01:31:10.794Z,100.00
2022-08-29T01:33:51.424Z,100.00
2022-08-29T01:36:23.682Z,100.00
2022-08-29T01:38:52.552Z,100.00
2022-08-29T01:41:23.129Z,100.00
2022-08-29T01:43:59.925Z,100.00
2022-08-29T01:46:34.674Z,100.00
2022-08-29T01:49:04.350Z,100.00
2022-08-29T01:51:33.486Z,100.00
2022-08-29T01:54:02.063Z,100.00
2022-08-29T01:56:34.116Z,100.00
2022-08-29T01:59:05.755Z,100.00
2022-08-29T02:01:36.576Z,100.00
2022-08-29T02:04:06.134Z,100.00
2022-08-29T02:06:35.164Z,100.00
2022-08-29T02:09:04.234Z,100.00
2022-08-29T02:11:35.469Z,100.00
2022-08-29T02:14:04.784Z,100.00
2022-08-29T02:16:34.004Z,100.00
2022-08-29T02:19:02.542Z,100.00
2022-08-29T02:21:31.890Z,100.00
2022-08-29T02:24:21.319Z,100.00
2022-08-29T02:26:55.405Z,100.00
2022-08-29T02:29:24.320Z,100.00
2022-08-29T02:31:53.213Z,100.00
2022-08-29T02:34:23.329Z,100.00
2022-08-29T02:36:52.044Z,100.00
2022-08-29T02:39:20.695Z,100.00
2022-08-29T02:41:49.053Z,100.00
2022-08-29T02:44:20.603Z,100.00
2022-08-29T02:46:50.378Z,100.00
2022-08-29T02:49:18.893Z,100.00
2022-08-29T02:51:47.363Z,100.00
2022-08-29T02:54:16.075Z,100.00
2022-08-29T02:56:44.478Z,100.00
2022-08-29T02:59:14.321Z,100.00
2022-08-29T03:01:44.169Z,100.00
2022-08-29T03:04:12.564Z,100.00
2022-08-29T03:06:40.923Z,100.00
2022-08-29T03:09:09.297Z,100.00
2022-08-29T03:11:37.844Z,100.00
2022-08-29T03:14:06.281Z,100.00
2022-08-29T03:16:35.026Z,100.00
2022-08-29T03:19:04.910Z,100.00
2022-08-29T03:21:33.537Z,100.00
2022-08-29T03:24:02.040Z,100.00
2022-08-29T03:26:30.733Z,100.00
2022-08-29T03:28:59.106Z,100.00
2022-08-29T03:31:27.566Z,100.00
2022-08-29T03:33:56.852Z,100.00
2022-08-29T03:36:28.012Z,100.00
2022-08-29T03:38:56.705Z,100.00
2022-08-29T03:41:27.465Z,100.00
2022-08-29T03:43:58.008Z,100.00
2022-08-29T03:46:26.507Z,100.00
2022-08-29T03:48:54.967Z,100.00
2022-08-29T03:51:26.248Z,100.00
2022-08-29T03:53:59.500Z,100.00
2022-08-29T03:56:29.005Z,100.00
2022-08-29T03:58:58.596Z,100.00
2022-08-29T04:01:29.577Z,100.00
2022-08-29T04:03:59.140Z,100.00
2022-08-29T04:06:29.508Z,100.00
2022-08-29T04:08:59.301Z,100.00
2022-08-29T04:11:29.012Z,100.00
2022-08-29T04:13:57.549Z,100.00
2022-08-29T04:16:30.892Z,100.00
2022-08-29T04:19:00.082Z,100.00
2022-08-29T04:21:28.710Z,100.00
2022-08-29T04:23:58.440Z,100.00
2022-08-29T04:26:41.999Z,100.00
2022-08-29T04:29:12.668Z,100.00
2022-08-29T04:31:42.463Z,100.00
2022-08-29T04:34:13.048Z,100.00
2022-08-29T04:36:45.479Z,100.00
2022-08-29T04:39:15.854Z,100.00
2022-08-29T04:41:44.541Z,100.00
2022-08-29T04:44:14.097Z,100.00
2022-08-29T04:46:42.896Z,100.00
2022-08-29T04:49:11.420Z,100.00
2022-08-29T04:51:40.804Z,100.00
2022-08-29T04:54:09.298Z,100.00
2022-08-29T04:56:43.658Z,100.00
2022-08-29T04:59:16.658Z,100.00
2022-08-29T05:01:45.049Z,100.00
2022-08-29T05:04:14.600Z,100.00
2022-08-29T05:06:43.730Z,100.00
2022-08-29T05:09:12.420Z,100.00
2022-08-29T05:11:42.922Z,100.00
2022-08-29T05:14:12.208Z,100.00
2022-08-29T05:16:40.973Z,100.00
2022-08-29T05:19:16.112Z,100.00
2022-08-29T05:21:45.081Z,100.00
2022-08-29T05:24:14.986Z,100.00
2022-08-29T05:26:46.749Z,100.00
2022-08-29T05:29:15.331Z,100.00
2022-08-29T05:31:44.504Z,100.00
2022-08-29T05:34:34.791Z,100.00
2022-08-29T05:37:03.128Z,100.00
2022-08-29T05:39:31.544Z,100.00
2022-08-29T05:42:01.552Z,100.00
2022-08-29T05:44:35.256Z,100.00
2022-08-29T05:47:04.697Z,100.00
2022-08-29T05:49:33.472Z,100.00
2022-08-29T05:52:01.908Z,100.00
2022-08-29T05:54:34.617Z,100.00
2022-08-29T05:57:04.666Z,100.00
2022-08-29T05:59:33.062Z,100.00
2022-08-29T06:02:01.668Z,100.00
2022-08-29T06:04:30.195Z,100.00
2022-08-29T06:06:58.569Z,100.00
2022-08-29T06:09:27.196Z,100.00
2022-08-29T06:11:57.832Z,100.00
2022-08-29T06:14:28.314Z,100.00
2022-08-29T06:16:57.392Z,100.00
2022-08-29T06:19:26.502Z,100.00
2022-08-29T06:21:56.716Z,100.00
2022-08-29T06:24:25.081Z,100.00
2022-08-29T06:26:53.449Z,100.00
2022-08-29T06:29:21.848Z,100.00
2022-08-29T06:31:51.783Z,100.00
2022-08-29T06:34:20.379Z,100.00
2022-08-29T06:36:48.791Z,100.00
2022-08-29T06:39:17.545Z,100.00
2022-08-29T06:41:45.972Z,100.00
2022-08-29T06:44:14.309Z,95.29
2022-08-29T06:46:44.982Z,90.70
2022-08-29T06:49:16.433Z,92.22
2022-08-29T06:51:49.237Z,91.39
2022-08-29T06:54:20.085Z,85.69
2022-08-29T06:56:48.705Z,81.39
2022-08-29T06:59:17.940Z,83.76
2022-08-29T07:01:47.241Z,77.42
2022-08-29T07:04:20.682Z,80.60
2022-08-29T07:06:50.151Z,74.04
2022-08-29T07:09:18.850Z,76.92
2022-08-29T07:11:47.162Z,70.03
2022-08-29T07:14:15.655Z,72.11
2022-08-29T07:16:44.439Z,80.61
2022-08-29T07:19:12.941Z,82.02
2022-08-29T07:21:45.460Z,75.16
2022-08-29T07:24:13.929Z,83.31
2022-08-29T07:26:44.384Z,75.57
2022-08-29T07:29:14.904Z,73.98
2022-08-29T07:31:43.734Z,79.20
2022-08-29T07:34:12.583Z,79.31
2022-08-29T07:36:41.339Z,80.04
2022-08-29T07:39:13.311Z,81.85
2022-08-29T07:41:42.971Z,83.02
2022-08-29T07:44:12.039Z,79.33
2022-08-29T07:46:41.112Z,80.95
2022-08-29T07:49:09.827Z,83.13
2022-08-29T07:51:38.265Z,76.96
2022-08-29T07:54:16.866Z,78.07
2022-08-29T07:56:46.346Z,71.35
2022-08-29T07:59:14.733Z,68.42
2022-08-29T08:01:43.431Z,67.53
2022-08-29T08:04:12.596Z,65.52
2022-08-29T08:06:43.328Z,65.45
2022-08-29T08:09:15.455Z,65.75
2022-08-29T08:11:44.500Z,65.42
2022-08-29T08:14:13.966Z,64.11
2022-08-29T08:16:44.350Z,62.43
2022-08-29T08:19:13.549Z,59.67
2022-08-29T08:21:49.197Z,58.08
2022-08-29T08:24:20.152Z,58.31
2022-08-29T08:26:49.064Z,58.96
2022-08-29T08:29:18.177Z,57.67
2022-08-29T08:31:47.290Z,52.84
2022-08-29T08:34:15.811Z,54.09
2022-08-29T08:36:45.550Z,48.81
2022-08-29T08:39:15.675Z,47.33
2022-08-29T08:41:56.063Z,44.72
2022-08-29T08:44:51.589Z,45.58
2022-08-29T08:47:25.777Z,45.64
2022-08-29T08:49:59.570Z,45.52
2022-08-29T08:52:35.561Z,50.58
2022-08-29T08:55:10.866Z,51.25
2022-08-29T08:57:45.466Z,46.38
2022-08-29T09:00:14.374Z,44.60
2022-08-29T09:02:56.525Z,45.80
2022-08-29T09:05:47.311Z,46.42
2022-08-29T09:08:25.700Z,43.63
2022-08-29T09:11:01.499Z,42.23
2022-08-29T09:13:43.855Z,42.19
2022-08-29T09:16:25.119Z,40.91
2022-08-29T09:19:04.904Z,38.44
2022-08-29T09:21:41.519Z,36.10
2022-08-29T09:24:17.040Z,36.67
2022-08-29T09:26:45.544Z,36.84
2022-08-29T09:29:17.431Z,38.53
2022-08-29T09:31:45.878Z,38.25
2022-08-29T09:34:56.930Z,37.12
2022-08-29T09:37:29.660Z,37.85
2022-08-29T09:40:06.642Z,37.47
2022-08-29T09:42:39.263Z,37.30
2022-08-29T09:45:19.371Z,34.35
2022-08-29T09:47:47.949Z,36.78
2022-08-29T09:50:24.830Z,34.06
2022-08-29T09:52:55.382Z,35.20
2022-08-29T09:55:31.000Z,34.93
2022-08-29T09:58:02.453Z,32.36
2022-08-29T10:00:35.794Z,33.13
2022-08-29T10:03:06.348Z,30.75
2022-08-29T10:05:44.541Z,29.36
2022-08-29T10:08:29.545Z,30.62
2022-08-29T10:11:02.941Z,30.83
2022-08-29T10:13:39.917Z,31.36
2022-08-29T10:16:18.879Z,30.25
2022-08-29T10:18:51.756Z,32.29
2022-08-29T10:21:37.414Z,32.79
2022-08-29T10:24:29.717Z,32.37
2022-08-29T10:27:05.010Z,32.38
2022-08-29T10:29:54.035Z,31.51
2022-08-29T10:32:37.279Z,32.09
2022-08-29T10:35:15.923Z,31.54
2022-08-29T10:37:53.908Z,33.11
2022-08-29T10:40:28.913Z,31.41
2022-08-29T10:43:14.393Z,31.04
2022-08-29T10:46:04.950Z,31.35
2022-08-29T10:48:44.180Z,31.05
2022-08-29T10:51:22.857Z,31.36
2022-08-29T10:53:56.527Z,30.78
2022-08-29T10:56:31.747Z,31.64
2022-08-29T10:59:08.939Z,30.57
2022-08-29T11:01:41.708Z,30.92
2022-08-29T11:04:18.935Z,30.55
2022-08-29T11:06:54.349Z,29.55
2022-08-29T11:09:26.972Z,30.98
2022-08-29T11:12:07.240Z,28.81
2022-08-29T11:14:40.190Z,29.72
2022-08-29T11:17:13.856Z,28.15
2022-08-29T11:19:55.564Z,27.25
2022-08-29T11:22:27.523Z,26.77
2022-08-29T11:25:02.906Z,27.64
2022-08-29T11:27:42.332Z,28.12
2022-08-29T11:30:17.676Z,26.59
2022-08-29T11:32:55.572Z,26.99
2022-08-29T11:35:29.277Z,29.35
2022-08-29T11:38:26.849Z,29.49
2022-08-29T11:41:30.362Z,29.54
2022-08-29T11:44:09.885Z,27.53
2022-08-29T11:46:42.467Z,27.12
2022-08-29T11:49:34.061Z,27.35
2022-08-29T11:52:26.529Z,27.30
2022-08-29T11:55:16.161Z,27.24
2022-08-29T11:57:52.035Z,25.88
2022-08-29T12:00:39.577Z,27.66
2022-08-29T12:03:57.377Z,24.62
2022-08-29T12:07:01.606Z,23.88
2022-08-29T12:09:44.531Z,23.34
2022-08-29T12:12:20.876Z,22.31
2022-08-29T12:14:53.224Z,21.91
2022-08-29T12:18:01.475Z,21.70
2022-08-29T12:20:42.014Z,20.58
2022-08-29T12:23:22.854Z,22.12
2022-08-29T12:26:15.878Z,22.02
2022-08-29T12:28:50.076Z,23.03
2022-08-29T12:32:02.364Z,23.40
2022-08-29T12:34:50.488Z,24.53
2022-08-29T12:37:45.973Z,25.44
2022-08-29T12:40:38.858Z,26.42
2022-08-29T12:43:29.908Z,27.03
2022-08-29T12:45:58.969Z,27.79
2022-08-29T12:48:30.004Z,27.74
2022-08-29T12:50:58.467Z,28.52
2022-08-29T12:53:30.308Z,31.04
2022-08-29T12:56:01.412Z,32.83
2022-08-29T12:58:39.825Z,35.80
2022-08-29T13:01:21.407Z,35.04
2022-08-29T13:03:57.739Z,35.96
2022-08-29T13:06:26.144Z,35.29
2022-08-29T13:08:54.543Z,38.04
2022-08-29T13:11:24.701Z,39.00
2022-08-29T13:14:06.032Z,43.44
2022-08-29T13:16:34.871Z,45.10
2022-08-29T13:19:11.556Z,47.52
2022-08-29T13:21:40.231Z,46.13
2022-08-29T13:24:14.441Z,47.50
2022-08-29T13:27:04.254Z,47.29
2022-08-29T13:29:39.320Z,48.03
2022-08-29T13:32:18.860Z,49.20
2022-08-29T13:35:01.887Z,50.34
2022-08-29T13:37:32.589Z,51.00
2022-08-29T13:40:31.344Z,51.68
2022-08-29T13:43:01.678Z,54.25
2022-08-29T13:45:31.803Z,54.31
2022-08-29T13:48:19.100Z,48.78
2022-08-29T13:53:21.304Z,51.07
2022-08-29T13:55:49.657Z,53.35
2022-08-29T13:58:21.919Z,54.09
2022-08-29T14:00:52.167Z,52.25
2022-08-29T14:03:22.266Z,50.86
2022-08-29T14:05:51.302Z,53.14
2022-08-29T14:08:19.649Z,53.19
2022-08-29T14:10:48.052Z,51.08
2022-08-29T14:13:16.478Z,55.58
2022-08-29T14:15:45.060Z,54.27
2022-08-29T14:18:16.340Z,54.57
2022-08-29T14:20:44.913Z,59.84
2022-08-29T14:23:13.333Z,64.18
2022-08-29T14:25:41.665Z,60.48
2022-08-29T14:28:10.029Z,51.49
2022-08-29T14:30:42.515Z,56.11
2022-08-29T14:33:23.639Z,62.36
2022-08-29T14:35:52.225Z,64.30
2022-08-29T14:38:20.761Z,63.06
2022-08-29T14:40:49.772Z,61.33
2022-08-29T14:43:18.545Z,66.45
2022-08-29T14:45:48.151Z,68.82
2022-08-29T14:48:17.222Z,70.78
2022-08-29T14:50:47.492Z,70.81
2022-08-29T14:53:16.760Z,74.92
2022-08-29T14:55:45.217Z,69.98
2022-08-29T14:58:17.396Z,71.86
2022-08-29T15:00:46.814Z,74.98
2022-08-29T15:03:15.278Z,73.39
2022-08-29T15:05:44.077Z,73.39
2022-08-29T15:08:17.072Z,74.55
2022-08-29T15:10:48.300Z,71.68
2022-08-29T15:13:16.791Z,74.80
2022-08-29T15:15:45.342Z,78.95
2022-08-29T15:18:30.496Z,75.92
2022-08-29T15:20:59.300Z,73.33
2022-08-29T15:23:29.078Z,71.15
2022-08-29T15:25:57.435Z,73.01
2022-08-29T15:28:25.913Z,75.22
2022-08-29T15:30:57.668Z,75.78
2022-08-29T15:33:26.162Z,72.20
2022-08-29T15:35:58.325Z,70.26
2022-08-29T15:38:26.770Z,64.55
2022-08-29T15:40:57.062Z,66.55
2022-08-29T15:43:25.545Z,68.08
2022-08-29T15:45:59.052Z,67.66
2022-08-29T15:48:28.209Z,66.07
2022-08-29T15:50:56.592Z,68.65
2022-08-29T15:53:28.220Z,69.55
2022-08-29T15:55:58.024Z,70.03
2022-08-29T15:58:26.530Z,71.54
2022-08-29T16:00:55.046Z,71.73
2022-08-29T16:03:23.559Z,78.25
2022-08-29T16:05:51.957Z,79.30
2022-08-29T16:08:23.957Z,73.72
2022-08-29T16:11:01.323Z,70.67
2022-08-29T16:13:36.252Z,70.31
2022-08-29T16:16:08.879Z,68.53
2022-08-29T16:18:37.599Z,66.13
2022-08-29T16:21:06.153Z,68.61
2022-08-29T16:23:34.766Z,69.90
2022-08-29T16:26:04.620Z,69.55
2022-08-29T16:28:33.469Z,69.35
2022-08-29T16:31:02.085Z,67.85
2022-08-29T16:33:31.406Z,68.30
2022-08-29T16:35:59.916Z,69.03
2022-08-29T16:38:28.957Z,69.96
2022-08-29T16:40:57.468Z,68.98
2022-08-29T16:43:27.255Z,70.38
2022-08-29T16:45:55.643Z,71.33
2022-08-29T16:48:24.307Z,74.88
2022-08-29T16:50:54.028Z,77.00
2022-08-29T16:53:22.368Z,76.32
2022-08-29T16:55:50.724Z,76.71
2022-08-29T16:58:36.684Z,75.72
2022-08-29T17:01:06.695Z,75.31
2022-08-29T17:03:35.184Z,76.60
2022-08-29T17:06:03.536Z,86.38
2022-08-29T17:08:30.704Z,92.31
2022-08-29T17:10:57.939Z,91.63
2022-08-29T17:13:25.592Z,94.00
2022-08-29T17:15:52.784Z,95.00
2022-08-29T17:18:23.078Z,97.52
2022-08-29T17:20:53.752Z,95.18
2022-08-29T17:23:22.110Z,94.70
2022-08-29T17:25:50.459Z,93.93
2022-08-29T17:28:19.949Z,95.97
2022-08-29T17:30:49.213Z,96.96
2022-08-29T17:33:17.948Z,95.17
2022-08-29T17:35:48.281Z,99.55
2022-08-29T17:38:17.276Z,98.86
2022-08-29T17:40:48.078Z,99.63
2022-08-29T17:43:18.613Z,96.88
2022-08-29T17:45:47.650Z,95.24
2022-08-29T17:48:16.161Z,93.73
2022-08-29T17:50:44.911Z,94.01
2022-08-29T17:53:14.676Z,91.31
2022-08-29T17:55:43.461Z,88.02
2022-08-29T17:58:12.372Z,89.06
2022-08-29T18:00:41.957Z,93.12
2022-08-29T18:03:10.518Z,95.72
2022-08-29T18:05:38.921Z,98.43
2022-08-29T18:08:07.470Z,99.32
2022-08-29T18:10:38.643Z,100.00
2022-08-29T18:13:07.129Z,100.00
2022-08-29T18:15:36.545Z,100.00
2022-08-29T18:18:06.522Z,100.00
2022-08-29T18:20:34.886Z,100.00
2022-08-29T18:23:03.235Z,100.00
2022-08-29T18:25:31.809Z,100.00
2022-08-29T18:28:01.640Z,100.00
2022-08-29T18:30:30.085Z,100.00
2022-08-29T18:32:58.565Z,100.00
2022-08-29T18:35:27.334Z,99.94
2022-08-29T18:37:55.649Z,100.00
2022-08-29T18:40:24.654Z,99.25
2022-08-29T18:42:53.908Z,100.00
2022-08-29T18:45:23.883Z,100.00
2022-08-29T18:47:52.347Z,98.67
2022-08-29T18:50:36.668Z,96.48
2022-08-29T18:53:12.005Z,95.74
2022-08-29T18:55:43.979Z,93.23
2022-08-29T18:58:18.367Z,92.89
2022-08-29T19:00:51.712Z,91.73
2022-08-29T19:03:20.992Z,89.59
2022-08-29T19:05:51.972Z,90.40
2022-08-29T19:08:23.084Z,88.39
2022-08-29T19:10:53.833Z,89.77
2022-08-29T19:13:25.268Z,91.84
2022-08-29T19:15:58.002Z,90.91
2022-08-29T19:18:27.591Z,91.40
2022-08-29T19:21:04.964Z,90.98
2022-08-29T19:23:36.871Z,91.10
2022-08-29T19:26:10.026Z,94.36
2022-08-29T19:31:15.058Z,91.94
2022-08-29T19:33:45.647Z,93.10
2022-08-29T19:36:14.748Z,93.76
2022-08-29T19:38:43.194Z,95.83
2022-08-29T19:41:12.623Z,96.25
2022-08-29T19:43:42.075Z,100.00
2022-08-29T19:46:16.462Z,100.00
2022-08-29T19:48:48.583Z,100.00
2022-08-29T19:51:22.003Z,100.00
2022-08-29T19:53:53.840Z,100.00
2022-08-29T19:56:23.347Z,100.00
2022-08-29T19:58:51.742Z,100.00
2022-08-29T20:01:21.749Z,100.00
2022-08-29T20:03:50.237Z,99.86
2022-08-29T20:06:20.983Z,98.23
2022-08-29T20:08:50.229Z,100.00
2022-08-29T20:11:21.963Z,100.00
2022-08-29T20:13:51.799Z,100.00
2022-08-29T20:16:24.988Z,100.00
2022-08-29T20:18:53.944Z,100.00
2022-08-29T20:21:23.861Z,100.00
2022-08-29T20:23:57.251Z,98.36
2022-08-29T20:26:27.385Z,96.87
2022-08-29T20:28:55.843Z,98.98
2022-08-29T20:31:25.811Z,98.15
2022-08-29T20:33:54.177Z,98.77
2022-08-29T20:36:50.000Z,100.00
2022-08-29T20:39:19.973Z,99.73
2022-08-29T20:41:53.826Z,98.74
2022-08-29T20:44:22.854Z,100.00
2022-08-29T20:46:53.308Z,100.00
2022-08-29T20:49:24.006Z,100.00
2022-08-29T20:51:53.048Z,100.00
2022-08-29T20:54:23.294Z,100.00
2022-08-29T20:56:52.245Z,100.00
2022-08-29T20:59:23.537Z,100.00
2022-08-29T21:01:56.559Z,100.00
2022-08-29T21:04:42.996Z,100.00
2022-08-29T21:07:13.887Z,100.00
2022-08-29T21:09:44.452Z,100.00
2022-08-29T21:12:15.386Z,100.00
2022-08-29T21:14:43.824Z,100.00
2022-08-29T21:17:14.962Z,100.00
2022-08-29T21:19:44.480Z,99.64
2022-08-29T21:22:14.625Z,98.19
2022-08-29T21:24:43.545Z,99.67
2022-08-29T21:27:12.172Z,98.41
2022-08-29T21:29:42.614Z,100.00
2022-08-29T21:32:11.089Z,100.00
2022-08-29T21:34:40.848Z,100.00
2022-08-29T21:37:09.159Z,100.00
2022-08-29T21:39:37.574Z,100.00
2022-08-29T21:42:06.725Z,100.00
2022-08-29T21:44:35.370Z,100.00
2022-08-29T21:47:04.049Z,100.00
2022-08-29T21:49:32.522Z,100.00
2022-08-29T21:52:02.713Z,100.00
2022-08-29T21:54:31.135Z,100.00
2022-08-29T21:56:59.506Z,100.00
2022-08-29T21:59:28.537Z,100.00
2022-08-29T22:01:57.229Z,100.00
2022-08-29T22:04:28.176Z,100.00
2022-08-29T22:06:57.710Z,100.00
2022-08-29T22:09:27.900Z,100.00
2022-08-29T22:11:56.470Z,100.00
2022-08-29T22:14:45.989Z,100.00
2022-08-29T22:17:14.364Z,100.00
2022-08-29T22:19:43.148Z,100.00
2022-08-29T22:22:11.764Z,100.00
2022-08-29T22:24:41.569Z,100.00
2022-08-29T22:27:09.956Z,100.00
2022-08-29T22:29:38.339Z,100.00
2022-08-29T22:32:07.342Z,100.00
2022-08-29T22:34:35.914Z,100.00
2022-08-29T22:37:04.335Z,100.00
2022-08-29T22:39:32.901Z,100.00
2022-08-29T22:42:02.711Z,100.00
2022-08-29T22:45:02.062Z,100.00
2022-08-29T22:47:20.396Z,100.00
2022-08-29T22:49:48.748Z,100.00
2022-08-29T22:52:17.162Z,100.00
2022-08-29T22:54:45.681Z,100.00
2022-08-29T22:57:18.192Z,100.00
2022-08-29T22:59:48.762Z,100.00
2022-08-29T23:02:18.284Z,100.00
2022-08-29T23:04:47.194Z,100.00
2022-08-29T23:07:15.726Z,100.00
2022-08-29T23:09:45.088Z,100.00
2022-08-29T23:12:15.899Z,100.00
2022-08-29T23:14:46.650Z,100.00
2022-08-29T23:17:16.698Z,100.00
2022-08-29T23:19:45.597Z,100.00
2022-08-29T23:22:15.487Z,100.00
2022-08-29T23:24:57.871Z,100.00
2022-08-29T23:27:29.387Z,100.00
2022-08-29T23:29:58.491Z,100.00
2022-08-29T23:32:27.425Z,100.00
2022-08-29T23:34:56.286Z,100.00
2022-08-29T23:37:25.050Z,100.00
2022-08-29T23:39:53.465Z,100.00
2022-08-29T23:42:21.951Z,100.00
2022-08-29T23:44:51.796Z,100.00
2022-08-29T23:47:20.870Z,100.00
2022-08-29T23:49:49.330Z,100.00
2022-08-29T23:52:18.130Z,100.00
2022-08-29T23:54:46.621Z,100.00
2022-08-29T23:57:15.036Z,100.00
